Time;durP1;ratioP1;P1;durP2;ratioP2;P2;SDS_P1;SDS_P2;PMS_P1;PMS_P2;Temp;Humidity;BMP_temperature;BMP_pressure;BME280_temperature;BME280_humidity;BME280_pressure;Samples;Min_cycle;Max_cycle;Signal;HPM_P1;HPM_P2
2022/07/02 00:00:08;;;;;;;5.32;3.10;;;;;;;15.87;66.58;102042.84;5133239;27;20474;-58
2022/07/02 00:02:36;;;;;;;3.25;2.92;;;;;;;15.75;66.93;102043.66;5098813;27;20035;-58
2022/07/02 00:05:06;;;;;;;6.55;3.03;;;;;;;15.83;66.67;102037.78;5133906;27;20031;-57
2022/07/02 00:07:32;;;;;;;8.32;3.60;;;;;;;15.72;67.30;102040.31;5115858;27;20080;-58
2022/07/02 00:10:00;;;;;;;6.20;3.20;;;;;;;15.75;67.07;102045.47;5132936;27;20023;-57
2022/07/02 00:12:28;;;;;;;4.82;2.97;;;;;;;15.72;67.19;102043.00;5132727;27;20030;-58
2022/07/02 00:14:58;;;;;;;6.45;3.40;;;;;;;15.69;67.22;102035.16;5133533;27;20019;-58
2022/07/02 00:17:24;;;;;;;5.85;3.42;;;;;;;15.58;67.54;102038.50;5134504;27;20071;-57
2022/07/02 00:19:51;;;;;;;6.15;3.38;;;;;;;15.44;67.22;102016.13;5134272;27;20486;-58
2022/07/02 00:22:17;;;;;;;7.78;3.40;;;;;;;15.51;67.49;102027.31;5134073;27;20473;-57
2022/07/02 00:24:45;;;;;;;4.45;3.00;;;;;;;15.52;67.50;102031.72;5132068;27;20367;-57
2022/07/02 00:27:13;;;;;;;5.72;3.20;;;;;;;15.49;67.74;102036.41;5133248;27;20045;-58
2022/07/02 00:29:54;;;;;;;5.90;3.75;;;;;;;15.45;67.98;102033.94;5133920;27;20507;-57
2022/07/02 00:32:22;;;;;;;5.43;3.17;;;;;;;15.46;67.71;102026.75;5133927;27;20019;-58
2022/07/02 00:34:50;;;;;;;6.60;3.25;;;;;;;15.26;68.33;102029.84;5114740;27;20049;-57
2022/07/02 00:37:15;;;;;;;6.18;3.53;;;;;;;15.37;68.36;102036.25;5131894;27;20023;-57
2022/07/02 00:39:41;;;;;;;4.97;3.92;;;;;;;15.40;68.21;102044.09;5131352;27;20382;-57
2022/07/02 00:42:09;;;;;;;5.57;3.13;;;;;;;15.47;67.90;102041.91;5132350;27;20046;-57
2022/07/02 00:44:35;;;;;;;6.15;3.60;;;;;;;15.38;68.02;102045.13;5133202;27;20450;-58
2022/07/02 00:47:08;;;;;;;8.27;3.40;;;;;;;15.43;68.11;102037.66;5132634;27;20036;-58
2022/07/02 00:49:35;;;;;;;6.55;3.45;;;;;;;15.28;68.55;102036.84;5113571;27;20019;-57
2022/07/02 00:52:01;;;;;;;8.98;3.22;;;;;;;15.39;68.06;102041.53;5114784;27;20027;-58
2022/07/02 00:54:27;;;;;;;9.45;3.60;;;;;;;15.31;68.50;102042.00;5133922;27;20087;-57
2022/07/02 00:56:53;;;;;;;8.90;3.70;;;;;;;15.22;68.61;102037.22;5133984;27;20363;-57
2022/07/02 00:59:24;;;;;;;6.72;3.60;;;;;;;15.10;68.41;102021.94;5132550;27;20023;-58
2022/07/02 01:01:50;;;;;;;7.25;3.33;;;;;;;15.24;68.51;102031.78;5113658;27;20031;-57
2022/07/02 01:04:15;;;;;;;6.72;3.40;;;;;;;15.08;68.82;102034.56;5132245;27;20041;-57
2022/07/02 01:06:42;;;;;;;6.20;3.38;;;;;;;15.13;69.09;102029.78;5132118;27;20023;-57
2022/07/02 01:12:00;;;;;;;7.60;3.47;;;;;;;15.04;69.11;102033.03;5132386;27;20447;-58
2022/07/02 01:14:26;;;;;;;5.43;3.33;;;;;;;15.08;69.20;102031.88;5132340;27;20501;-57
2022/07/02 01:16:52;;;;;;;7.78;3.38;;;;;;;15.17;68.69;102029.47;5132207;27;20109;-58
2022/07/02 01:19:22;;;;;;;6.32;3.58;;;;;;;15.17;68.75;102015.22;5132235;27;20143;-57
2022/07/02 01:22:33;;;;;;;5.60;3.25;;;;;;;15.24;68.09;102019.25;5132575;27;20031;-57
2022/07/02 01:24:59;;;;;;;6.97;3.65;;;;;;;15.06;68.98;102023.97;5070037;28;20036;-57
2022/07/02 01:27:24;;;;;;;6.53;3.20;;;;;;;15.05;69.04;102021.34;5070089;28;20025;-57
2022/07/02 01:29:51;;;;;;;6.05;3.20;;;;;;;15.11;68.70;102029.00;5101029;27;20084;-57
2022/07/02 01:32:17;;;;;;;6.30;3.15;;;;;;;15.08;68.95;102029.19;5131172;27;20018;-57
2022/07/02 01:35:00;;;;;;;7.63;2.92;;;;;;;14.98;69.50;102020.88;5114619;27;20398;-58
2022/07/02 01:37:25;;;;;;;6.70;3.20;;;;;;;14.89;69.55;102014.28;5129704;27;20488;-57
2022/07/02 01:39:51;;;;;;;4.97;3.55;;;;;;;14.96;68.98;102020.13;5112882;27;20035;-57
2022/07/02 01:42:17;;;;;;;10.48;3.42;;;;;;;14.97;69.77;102030.75;5131668;27;20797;-58
2022/07/02 01:44:44;;;;;;;9.85;3.50;;;;;;;14.91;69.36;102032.94;5132065;27;20031;-57
2022/07/02 01:47:11;;;;;;;3.88;2.75;;;;;;;14.92;69.86;102037.34;5132620;27;20038;-57
2022/07/02 01:49:37;;;;;;;7.43;3.03;;;;;;;14.89;69.96;102037.53;5132160;27;20023;-58
2022/07/02 01:52:04;;;;;;;5.18;2.78;;;;;;;14.91;69.52;102028.47;5130598;27;20045;-57
2022/07/02 01:54:33;;;;;;;5.65;3.00;;;;;;;14.75;70.25;102030.34;5132463;27;20019;-58
2022/07/02 01:57:02;;;;;;;6.00;3.47;;;;;;;14.75;70.33;102033.88;5132648;27;20019;-57
2022/07/02 01:59:27;;;;;;;8.32;3.75;;;;;;;14.80;70.54;102030.09;5112883;27;20408;-57
2022/07/02 02:01:53;;;;;;;5.55;3.03;;;;;;;14.75;70.54;102025.84;5132330;27;20027;-57
2022/07/02 02:04:18;;;;;;;5.00;3.05;;;;;;;14.60;70.94;102031.31;5114078;27;20110;-57
2022/07/02 02:06:46;;;;;;;7.95;3.35;;;;;;;14.64;70.61;102022.13;5130277;27;20042;-58
2022/07/02 02:09:11;;;;;;;5.55;2.90;;;;;;;14.71;70.66;102020.81;5096146;27;20040;-57
2022/07/02 02:11:37;;;;;;;5.03;3.50;;;;;;;14.72;70.63;102026.03;5132416;27;20047;-57
2022/07/02 02:14:03;;;;;;;5.28;3.28;;;;;;;14.63;71.24;102025.75;5132191;27;20023;-57
2022/07/02 02:16:30;;;;;;;6.32;3.58;;;;;;;14.62;70.47;102016.88;5096753;27;20059;-58
2022/07/02 02:18:57;;;;;;;9.38;3.90;;;;;;;14.69;70.37;102028.91;5132492;27;20049;-57
2022/07/02 02:21:26;;;;;;;5.15;3.72;;;;;;;14.59;71.51;102014.38;5129583;27;20029;-58
2022/07/02 02:23:53;;;;;;;5.43;3.60;;;;;;;14.56;70.63;102025.28;5132192;27;20026;-57
2022/07/02 02:26:19;;;;;;;4.15;3.58;;;;;;;14.52;71.91;102018.38;5113359;27;20015;-57
2022/07/02 02:28:44;;;;;;;8.77;3.90;;;;;;;14.51;70.88;102030.00;5132122;27;20027;-57
2022/07/02 02:31:10;;;;;;;7.43;3.85;;;;;;;14.59;70.85;102022.41;5131019;27;20027;-57
2022/07/02 02:33:35;;;;;;;5.93;3.40;;;;;;;14.61;70.50;102028.50;5113556;27;20538;-57
2022/07/02 02:36:02;;;;;;;5.82;3.15;;;;;;;14.67;70.57;102032.63;5111907;27;20039;-57
2022/07/02 02:38:28;;;;;;;9.95;4.25;;;;;;;14.72;70.09;102025.19;5131083;27;20023;-57
2022/07/02 02:40:53;;;;;;;10.70;3.75;;;;;;;14.69;70.49;102026.22;5130026;27;20023;-57
2022/07/02 02:43:18;;;;;;;7.47;3.85;;;;;;;14.70;70.02;102024.41;5113241;27;20375;-57
2022/07/02 02:45:48;;;;;;;7.05;3.72;;;;;;;14.65;70.39;102026.53;5130335;27;20482;-57
2022/07/02 02:48:15;;;;;;;7.93;4.05;;;;;;;14.69;69.89;102026.22;5112705;27;20038;-57
2022/07/02 02:50:40;;;;;;;9.30;4.40;;;;;;;14.70;69.71;102027.94;5131435;27;20413;-58
2022/07/02 02:53:05;;;;;;;6.15;3.70;;;;;;;14.64;70.12;102040.84;5113217;27;20023;-57
2022/07/02 02:55:31;;;;;;;6.20;4.05;;;;;;;14.66;69.92;102033.59;5113250;27;20035;-57
2022/07/02 02:57:57;;;;;;;9.68;4.25;;;;;;;14.74;69.66;102026.81;5130009;27;20039;-58
2022/07/02 03:00:24;;;;;;;9.10;4.20;;;;;;;14.66;69.70;102031.78;5130359;27;20054;-57
2022/07/02 03:02:49;;;;;;;6.97;3.58;;;;;;;14.65;69.81;102032.75;5131653;28;20739;-57
2022/07/02 03:05:15;;;;;;;5.78;3.88;;;;;;;14.68;69.54;102027.19;5112395;28;20110;-57
2022/07/02 03:07:40;;;;;;;6.95;4.03;;;;;;;14.60;69.96;102023.28;5095668;28;20049;-57
2022/07/02 03:10:07;;;;;;;9.18;5.07;;;;;;;14.57;69.94;102035.03;5112295;28;20096;-58
2022/07/02 03:12:32;;;;;;;7.57;3.67;;;;;;;14.61;70.13;102030.34;5130173;28;20027;-58
2022/07/02 03:14:58;;;;;;;7.13;3.65;;;;;;;14.55;70.16;102042.28;5130158;28;20482;-58
2022/07/02 03:17:25;;;;;;;6.07;3.70;;;;;;;14.51;70.21;102043.41;5112020;28;20031;-57
2022/07/02 03:19:51;;;;;;;6.45;3.85;;;;;;;14.52;70.76;102047.81;5131412;28;20484;-57
2022/07/02 03:22:17;;;;;;;13.63;4.22;;;;;;;14.51;70.98;102048.75;5112381;28;20110;-57
2022/07/02 03:24:45;;;;;;;6.63;3.63;;;;;;;14.53;70.39;102054.91;5131081;28;20125;-57
2022/07/02 03:27:10;;;;;;;10.82;4.13;;;;;;;14.48;70.50;102043.59;5131254;28;20080;-57
2022/07/02 03:29:38;;;;;;;10.48;4.07;;;;;;;14.49;70.10;102053.31;5111425;28;20550;-57
2022/07/02 03:32:05;;;;;;;8.20;4.10;;;;;;;14.44;70.18;102052.72;5114519;27;20039;-57
2022/07/02 03:34:31;;;;;;;8.02;4.03;;;;;;;14.46;70.45;102050.84;5115144;27;20092;-58
2022/07/02 03:36:59;;;;;;;7.60;3.85;;;;;;;14.48;70.25;102059.66;5116378;27;20054;-57
2022/07/02 03:39:24;;;;;;;9.32;3.67;;;;;;;14.47;70.51;102063.25;5101118;27;20031;-57
2022/07/02 03:41:52;;;;;;;6.70;4.22;;;;;;;14.38;70.66;102058.47;5134949;27;20055;-57
2022/07/02 03:44:18;;;;;;;7.90;3.78;;;;;;;14.44;70.48;102067.00;5134113;27;20427;-58
2022/07/02 03:46:43;;;;;;;6.72;3.35;;;;;;;14.45;70.44;102068.72;5133684;27;20034;-58
2022/07/02 03:49:09;;;;;;;8.13;4.10;;;;;;;14.34;70.71;102063.13;5134876;27;20110;-57
2022/07/02 03:51:35;;;;;;;15.27;4.80;;;;;;;14.34;70.78;102065.81;5134621;27;20039;-58
2022/07/02 03:54:00;;;;;;;8.65;3.97;;;;;;;14.34;70.60;102057.78;5134686;27;20477;-57
2022/07/02 03:56:26;;;;;;;7.20;3.83;;;;;;;14.45;70.35;102063.38;5115880;27;20043;-57
2022/07/02 03:58:51;;;;;;;9.13;4.00;;;;;;;14.43;70.49;102059.91;5115670;27;20087;-57
2022/07/02 04:01:17;;;;;;;6.78;3.90;;;;;;;14.41;70.04;102053.81;5133392;27;20123;-57
2022/07/02 04:03:42;;;;;;;8.18;4.30;;;;;;;14.43;70.63;102062.59;5134692;27;20031;-57
2022/07/02 04:06:08;;;;;;;6.55;3.90;;;;;;;14.50;71.19;102063.97;5114559;27;20113;-58
2022/07/02 04:08:34;;;;;;;5.20;3.45;;;;;;;14.50;70.53;102058.59;5133402;27;20385;-57
2022/07/02 04:10:59;;;;;;;7.82;3.80;;;;;;;14.43;70.58;102069.75;5113379;27;20055;-58
2022/07/02 04:13:27;;;;;;;6.95;4.28;;;;;;;14.37;70.84;102072.81;5116796;27;20027;-58
2022/07/02 04:15:55;;;;;;;7.97;4.30;;;;;;;14.41;71.00;102077.00;5117169;27;20027;-58
2022/07/02 04:18:20;;;;;;;15.30;4.75;;;;;;;14.42;70.97;102076.06;5115542;27;20034;-57
2022/07/02 04:20:46;;;;;;;10.70;3.80;;;;;;;14.36;71.03;102073.78;5132179;27;20110;-57
2022/07/02 04:23:12;;;;;;;8.60;3.97;;;;;;;14.31;71.25;102071.34;5133658;27;20090;-58
2022/07/02 04:25:37;;;;;;;7.20;3.90;;;;;;;14.35;71.47;102070.19;5112781;27;20078;-57
2022/07/02 04:28:03;;;;;;;10.43;4.60;;;;;;;14.41;71.48;102072.53;5134403;27;20063;-58
2022/07/02 04:30:29;;;;;;;6.60;3.85;;;;;;;14.40;71.29;102062.75;5133081;27;20084;-57
2022/07/02 04:32:54;;;;;;;10.77;4.20;;;;;;;14.48;71.02;102071.22;5134403;27;20031;-57
2022/07/02 04:35:20;;;;;;;9.68;4.65;;;;;;;14.50;71.32;102073.78;5115797;27;20122;-57
2022/07/02 04:37:45;;;;;;;7.60;4.00;;;;;;;14.62;71.01;102072.22;5130864;27;20020;-57
2022/07/02 04:40:11;;;;;;;7.95;4.13;;;;;;;14.59;70.95;102072.41;5097809;27;20462;-57
2022/07/02 04:42:37;;;;;;;11.65;4.18;;;;;;;14.60;70.78;102068.78;5113836;28;20058;-57
2022/07/02 04:45:03;;;;;;;9.23;4.18;;;;;;;14.64;71.18;102075.66;5115084;27;20031;-57
2022/07/02 04:47:28;;;;;;;7.82;3.80;;;;;;;14.67;71.00;102072.81;5133722;27;20064;-57
2022/07/02 04:49:54;;;;;;;6.63;3.88;;;;;;;14.77;70.71;102069.47;5115160;27;20027;-57
2022/07/02 04:52:21;;;;;;;7.60;4.00;;;;;;;14.83;70.74;102068.25;5133279;27;20027;-57
2022/07/02 04:54:46;;;;;;;8.10;4.15;;;;;;;14.81;70.68;102064.78;5133870;27;20015;-58
2022/07/02 04:57:11;;;;;;;8.57;4.25;;;;;;;14.84;71.03;102069.09;5132754;27;20118;-57
2022/07/02 04:59:37;;;;;;;7.25;4.00;;;;;;;14.87;70.20;102069.78;5133128;27;20055;-58
2022/07/02 05:02:05;;;;;;;8.07;4.45;;;;;;;14.94;70.27;102075.59;5133456;27;20377;-57
2022/07/02 05:04:30;;;;;;;8.63;4.10;;;;;;;15.02;70.26;102072.47;5132423;27;20031;-57
2022/07/02 05:06:57;;;;;;;6.35;3.72;;;;;;;15.08;69.77;102072.06;5131957;27;20023;-57
2022/07/02 05:09:25;;;;;;;9.10;4.25;;;;;;;15.13;69.69;102070.84;5115649;27;20042;-58
2022/07/02 05:11:50;;;;;;;10.60;4.40;;;;;;;15.14;69.42;102069.88;5133714;27;20023;-57
2022/07/02 05:14:15;;;;;;;6.43;3.97;;;;;;;15.16;69.41;102076.00;5098358;27;20030;-57
2022/07/02 05:16:41;;;;;;;11.52;4.47;;;;;;;15.20;70.48;102071.31;5098501;27;20031;-57
2022/07/02 05:19:09;;;;;;;7.00;4.25;;;;;;;15.24;68.56;102069.31;5115576;27;20042;-57
2022/07/02 05:21:36;;;;;;;9.07;3.92;;;;;;;15.35;68.41;102074.81;5115101;27;20023;-57
2022/07/02 05:24:02;;;;;;;6.47;3.90;;;;;;;15.39;68.44;102076.38;5098693;27;20054;-57
2022/07/02 05:26:28;;;;;;;8.25;4.00;;;;;;;15.39;68.62;102076.38;5098054;27;20405;-57
2022/07/02 05:28:54;;;;;;;9.80;3.75;;;;;;;15.51;68.43;102070.22;5133530;27;20592;-57
2022/07/02 05:31:19;;;;;;;5.93;3.63;;;;;;;15.57;66.97;102064.47;5097508;27;20049;-57
2022/07/02 05:33:47;;;;;;;6.45;3.40;;;;;;;15.71;67.48;102073.47;5114325;27;20551;-57
2022/07/02 05:36:13;;;;;;;7.10;3.88;;;;;;;15.78;66.62;102077.47;5098201;27;20035;-57
2022/07/02 05:38:38;;;;;;;6.53;3.72;;;;;;;15.82;66.84;102085.19;5133429;27;20168;-57
2022/07/02 05:41:06;;;;;;;6.45;3.55;;;;;;;15.98;67.31;102079.72;5097627;27;20125;-57
2022/07/02 05:43:32;;;;;;;8.05;4.10;;;;;;;15.95;65.35;102074.53;5094030;28;20043;-57
2022/07/02 05:45:57;;;;;;;7.82;3.67;;;;;;;16.08;65.12;102086.16;5112783;28;20032;-57
2022/07/02 05:48:23;;;;;;;6.22;3.42;;;;;;;16.19;64.88;102084.59;5112385;28;20488;-57
2022/07/02 05:50:49;;;;;;;5.53;3.42;;;;;;;16.24;64.45;102086.03;5110610;28;20390;-57
2022/07/02 05:53:15;;;;;;;5.95;3.60;;;;;;;16.30;64.29;102084.75;5094310;28;20081;-57
2022/07/02 05:55:40;;;;;;;5.57;3.25;;;;;;;16.42;64.04;102086.59;5111266;28;20045;-57
2022/07/02 05:58:05;;;;;;;5.90;3.13;;;;;;;16.50;62.97;102083.38;5093578;28;20110;-58
2022/07/02 06:00:32;;;;;;;7.82;3.20;;;;;;;16.65;62.42;102094.91;5112671;28;20474;-57
2022/07/02 06:02:57;;;;;;;6.05;2.88;;;;;;;16.74;61.98;102097.81;5112215;28;20036;-60
2022/07/02 06:08:08;;;;;;;6.63;2.55;;;;;;;16.95;61.42;102087.44;5112613;28;20073;-57
2022/07/02 06:10:33;;;;;;;12.77;2.72;;;;;;;17.06;59.74;102091.19;5112239;28;20039;-57
2022/07/02 06:12:59;;;;;;;5.55;2.25;;;;;;;17.18;60.98;102095.72;5111812;28;20035;-57
2022/07/02 06:15:24;;;;;;;6.03;2.30;;;;;;;17.35;60.46;102095.34;5112028;28;20027;-57
2022/07/02 06:17:50;;;;;;;5.70;2.30;;;;;;;17.39;60.34;102096.00;5093366;28;20031;-57
2022/07/02 06:20:16;;;;;;;6.20;2.42;;;;;;;17.51;60.19;102100.50;5112025;28;20118;-57
2022/07/02 06:22:43;;;;;;;7.38;2.65;;;;;;;17.64;62.67;102095.06;5111340;28;20038;-57
2022/07/02 06:25:09;;;;;;;5.60;2.42;;;;;;;17.83;59.32;102084.72;5111647;27;20038;-58
2022/07/02 06:27:35;;;;;;;7.82;2.20;;;;;;;18.07;57.33;102090.09;5110081;28;20044;-58
2022/07/02 06:30:02;;;;;;;7.65;2.30;;;;;;;18.21;56.30;102090.91;5111356;28;20469;-57
2022/07/02 06:32:30;;;;;;;3.55;2.13;;;;;;;18.12;55.83;102097.84;5110784;28;20379;-58
2022/07/02 06:34:58;;;;;;;5.40;2.13;;;;;;;17.92;54.90;102096.63;5110727;28;20453;-58
2022/07/02 06:37:24;;;;;;;5.32;2.33;;;;;;;17.80;55.83;102095.72;5111581;28;20035;-58
2022/07/02 06:39:50;;;;;;;5.13;1.80;;;;;;;17.70;56.01;102092.78;5111900;27;20084;-58
2022/07/02 06:42:19;;;;;;;3.30;1.83;;;;;;;17.69;57.91;102092.91;5109372;28;20388;-58
2022/07/02 06:44:51;;;;;;;3.90;2.03;;;;;;;17.98;56.58;102104.25;5111766;28;20449;-58
2022/07/02 06:47:20;;;;;;;3.88;1.77;;;;;;;18.07;53.44;102092.78;5111533;28;20024;-58
2022/07/02 06:49:46;;;;;;;4.95;1.98;;;;;;;18.18;53.97;102094.69;5111824;28;20484;-58
2022/07/02 06:52:12;;;;;;;4.25;2.00;;;;;;;18.38;53.50;102095.84;5110787;28;20027;-58
2022/07/02 06:54:37;;;;;;;6.38;2.42;;;;;;;18.41;53.37;102097.47;5109983;28;20046;-58
2022/07/02 06:57:04;;;;;;;6.78;1.90;;;;;;;18.48;53.04;102090.63;5110958;28;20037;-58
2022/07/02 06:59:30;;;;;;;3.75;1.48;;;;;;;18.55;50.57;102098.13;5111687;28;20023;-58
2022/07/02 07:01:56;;;;;;;7.18;2.25;;;;;;;18.60;51.16;102090.53;5110177;28;20022;-58
2022/07/02 07:04:26;;;;;;;4.07;1.40;;;;;;;18.69;54.25;102098.91;5111234;28;20528;-57
2022/07/02 07:06:54;;;;;;;3.63;1.50;;;;;;;18.82;48.66;102097.00;5110136;28;20054;-57
2022/07/02 07:09:20;;;;;;;1.65;1.20;;;;;;;18.86;50.94;102103.03;5111621;28;20092;-57
2022/07/02 07:11:46;;;;;;;5.07;1.38;;;;;;;18.99;48.71;102098.38;5111149;28;20106;-57
2022/07/02 07:14:14;;;;;;;2.55;1.27;;;;;;;19.05;47.41;102092.50;5111331;28;20505;-57
2022/07/02 07:16:39;;;;;;;4.15;1.40;;;;;;;19.15;48.49;102085.41;5109615;28;20027;-57
2022/07/02 07:19:05;;;;;;;4.70;1.42;;;;;;;19.18;52.16;102092.41;5111354;28;20134;-57
2022/07/02 07:21:41;;;;;;;3.95;1.25;;;;;;;19.42;50.59;102095.81;5109208;28;20039;-57
2022/07/02 07:24:08;;;;;;;3.38;1.40;;;;;;;19.46;49.97;102101.81;5110492;28;20026;-57
2022/07/02 07:26:35;;;;;;;6.55;1.80;;;;;;;19.60;50.44;102098.00;5111273;28;20389;-58
2022/07/02 07:29:01;;;;;;;3.63;1.38;;;;;;;19.71;48.42;102092.63;5110005;28;20015;-58
2022/07/02 07:31:27;;;;;;;4.40;1.70;;;;;;;19.81;49.03;102095.41;5109978;28;20367;-57
2022/07/02 07:33:54;;;;;;;2.22;1.33;;;;;;;19.77;47.61;102094.81;5111132;28;20024;-57
2022/07/02 07:36:21;;;;;;;6.70;1.60;;;;;;;19.92;50.41;102093.53;5110597;28;20054;-58
2022/07/02 07:38:48;;;;;;;2.90;1.48;;;;;;;19.79;48.68;102091.97;5110669;28;20032;-58
2022/07/02 07:41:14;;;;;;;3.28;1.45;;;;;;;19.96;48.53;102096.84;5110920;28;20122;-57
2022/07/02 07:43:39;;;;;;;6.28;1.48;;;;;;;20.01;47.95;102100.03;5109648;28;20169;-58
2022/07/02 07:46:06;;;;;;;4.32;1.60;;;;;;;20.18;48.29;102106.72;5110866;28;20036;-58
2022/07/02 07:48:32;;;;;;;2.72;1.27;;;;;;;20.19;46.70;102105.72;5110938;28;20043;-58
2022/07/02 07:50:58;;;;;;;4.38;1.75;;;;;;;20.26;47.00;102106.91;5110165;28;20039;-58
2022/07/02 07:53:23;;;;;;;4.45;1.88;;;;;;;20.48;48.63;102105.97;5111078;28;20024;-58
2022/07/02 07:55:49;;;;;;;5.78;1.60;;;;;;;20.55;47.49;102093.66;5109413;28;20432;-57
2022/07/02 07:58:18;;;;;;;3.05;1.50;;;;;;;20.48;45.79;102092.47;5110532;28;20092;-57
2022/07/02 08:00:45;;;;;;;4.32;1.50;;;;;;;20.40;47.97;102087.69;5110992;28;20110;-58
2022/07/02 08:03:11;;;;;;;4.72;1.50;;;;;;;20.36;47.05;102099.75;5110855;28;20431;-58
2022/07/02 08:05:36;;;;;;;3.17;1.50;;;;;;;20.45;46.52;102100.84;5109747;28;20027;-58
2022/07/02 08:08:02;;;;;;;4.30;1.23;;;;;;;20.67;47.37;102102.56;5110051;28;20049;-58
2022/07/02 08:10:28;;;;;;;3.00;1.52;;;;;;;20.89;46.80;102093.47;5110447;28;20020;-58
2022/07/02 08:12:53;;;;;;;2.92;1.30;;;;;;;21.01;45.27;102103.22;5111038;28;20076;-58
2022/07/02 08:15:22;;;;;;;3.05;1.10;;;;;;;21.08;44.59;102098.13;5109659;28;20069;-58
2022/07/02 08:17:48;;;;;;;5.30;1.42;;;;;;;21.24;45.77;102070.59;5111096;28;20032;-57
2022/07/02 08:20:14;;;;;;;3.28;1.40;;;;;;;21.44;45.29;102087.75;5110522;28;20595;-57
2022/07/02 08:22:39;;;;;;;3.75;1.80;;;;;;;21.53;45.49;102090.50;5113623;28;20023;-57
2022/07/02 08:25:07;;;;;;;4.38;1.30;;;;;;;21.68;44.88;102096.41;5114177;28;20051;-58
2022/07/02 08:27:33;;;;;;;3.58;1.60;;;;;;;21.73;44.11;102079.72;5113264;28;20472;-58
2022/07/02 08:29:58;;;;;;;1.30;1.02;;;;;;;21.76;44.24;102087.56;5112644;28;20118;-58
2022/07/02 08:32:25;;;;;;;3.45;1.52;;;;;;;21.70;44.51;102088.97;5113826;28;20059;-58
2022/07/02 08:34:55;;;;;;;4.45;1.60;;;;;;;21.80;45.78;102074.63;5113815;28;20029;-58
2022/07/02 08:37:23;;;;;;;2.92;1.35;;;;;;;21.99;44.89;102071.91;5112063;28;20054;-58
2022/07/02 08:39:48;;;;;;;3.85;1.50;;;;;;;21.97;43.45;102052.22;5114098;28;20035;-58
2022/07/02 08:42:31;;;;;;;5.57;1.80;;;;;;;22.34;45.46;102084.94;5112404;28;20089;-58
2022/07/02 08:44:59;;;;;;;4.07;1.55;;;;;;;22.31;45.05;102077.09;5111971;28;20703;-58
2022/07/02 08:47:25;;;;;;;3.00;1.45;;;;;;;22.35;43.84;102086.63;5112642;28;20036;-58
2022/07/02 08:49:54;;;;;;;3.42;1.23;;;;;;;22.37;43.71;102079.22;5113848;28;20390;-58
2022/07/02 08:52:21;;;;;;;7.20;1.60;;;;;;;22.43;44.38;102075.94;5111574;28;20531;-58
2022/07/02 08:54:48;;;;;;;5.15;1.63;;;;;;;22.40;43.26;102070.78;5114146;28;20031;-58
2022/07/02 08:57:15;;;;;;;7.68;1.50;;;;;;;22.54;45.33;102072.22;5112162;28;20024;-58
2022/07/02 08:59:44;;;;;;;5.15;1.27;;;;;;;22.62;43.24;102061.50;5112528;28;20546;-58
2022/07/02 09:02:11;;;;;;;;;;;;;;;22.82;44.33;102072.28;5111978;28;20553;-58
2022/07/02 09:04:41;;;;;;;4.30;1.90;;;;;;;22.60;43.17;102070.78;5112162;28;19954;-58
2022/07/02 09:07:07;;;;;;;3.17;1.40;;;;;;;22.81;44.81;102073.31;5110146;28;20525;-58
2022/07/02 09:09:33;;;;;;;3.03;1.38;;;;;;;22.84;43.15;102068.44;5112361;28;20024;-58
2022/07/02 09:11:59;;;;;;;5.63;1.50;;;;;;;22.83;42.31;102064.00;5111646;28;20061;-58
2022/07/02 09:14:25;;;;;;;4.03;1.40;;;;;;;22.71;42.55;102057.06;5112159;28;20053;-58
2022/07/02 09:16:51;;;;;;;3.08;1.63;;;;;;;22.70;42.38;102052.63;5113034;28;20038;-58
2022/07/02 09:19:17;;;;;;;3.65;1.63;;;;;;;22.74;42.75;102045.06;5112431;28;20198;-58
2022/07/02 09:21:47;;;;;;;3.60;1.70;;;;;;;22.77;43.32;102045.63;5110011;28;20052;-58
2022/07/02 09:24:16;;;;;;;3.22;1.45;;;;;;;22.98;44.06;102044.59;5106343;28;20019;-58
2022/07/02 09:26:48;;;;;;;5.18;1.48;;;;;;;23.10;41.65;102040.66;5110902;28;20035;-58
2022/07/02 09:29:14;;;;;;;3.65;1.30;;;;;;;23.04;40.58;102033.13;5111488;28;20039;-58
2022/07/02 09:31:49;;;;;;;3.97;1.40;;;;;;;23.16;42.87;102047.38;5110425;28;20073;-58
2022/07/02 09:34:25;;;;;;;3.22;1.40;;;;;;;22.97;41.53;102026.56;5111672;28;20378;-58
2022/07/02 09:36:53;;;;;;;3.53;1.58;;;;;;;23.00;41.03;102029.88;5111252;28;20031;-58
2022/07/02 09:39:29;;;;;;;3.97;1.23;;;;;;;23.00;41.76;102026.28;5112278;28;20051;-58
2022/07/02 09:41:55;;;;;;;3.58;1.23;;;;;;;23.06;40.53;102015.69;5114761;27;20038;-58
2022/07/02 09:44:25;;;;;;;2.42;1.27;;;;;;;23.29;41.17;102023.41;5131920;27;20031;-58
2022/07/02 09:46:51;;;;;;;2.05;1.20;;;;;;;23.45;41.53;102020.91;5096605;27;20447;-58
2022/07/02 09:49:17;;;;;;;2.90;1.42;;;;;;;23.49;39.94;102024.16;5132831;27;20038;-59
2022/07/02 09:51:53;;;;;;;4.25;1.50;;;;;;;23.45;41.33;102022.78;5132648;27;20027;-60
2022/07/02 09:54:23;;;;;;;5.20;1.88;;;;;;;23.50;41.59;102018.59;5131644;27;20022;-60
2022/07/02 09:56:52;;;;;;;2.42;1.20;;;;;;;23.45;41.66;102010.03;5132294;27;20011;-65
2022/07/02 09:59:18;;;;;;;3.08;1.50;;;;;;;23.57;41.90;102010.69;5132023;27;20031;-61
2022/07/02 10:01:44;;;;;;;6.50;1.55;;;;;;;23.56;41.81;102009.00;5114161;27;20068;-60
2022/07/02 10:04:10;;;;;;;4.05;1.35;;;;;;;23.67;40.83;102008.75;5132114;27;20120;-61
2022/07/02 10:06:37;;;;;;;3.17;1.30;;;;;;;23.51;40.73;102004.00;5131063;27;20109;-61
2022/07/02 10:09:03;;;;;;;4.75;1.40;;;;;;;23.59;40.07;102000.53;5131760;27;20076;-59
2022/07/02 10:11:30;;;;;;;3.58;1.40;;;;;;;23.64;42.41;102002.75;5132152;27;20031;-59
2022/07/02 10:13:58;;;;;;;4.63;1.35;;;;;;;23.73;41.26;101999.16;5130574;27;20030;-60
2022/07/02 10:16:24;;;;;;;3.53;1.40;;;;;;;24.02;44.40;101999.75;5112721;27;20031;-57
2022/07/02 10:18:50;;;;;;;4.70;1.40;;;;;;;24.01;39.82;102005.38;5130235;27;20528;-59
2022/07/02 10:21:16;;;;;;;6.82;1.30;;;;;;;23.83;39.85;101999.94;5132227;27;20481;-59
2022/07/02 10:23:45;;;;;;;3.47;1.50;;;;;;;23.60;41.05;101998.66;5113460;27;20027;-59
2022/07/02 10:26:11;;;;;;;4.65;1.40;;;;;;;23.45;40.03;101992.91;5131454;27;20027;-59
2022/07/02 10:28:36;;;;;;;3.60;1.42;;;;;;;23.32;41.02;101999.56;5128142;27;20022;-59
2022/07/02 10:31:05;;;;;;;3.00;1.10;;;;;;;23.24;41.43;101983.16;5130985;27;20043;-60
2022/07/02 10:33:31;;;;;;;;;;;;;;;23.49;41.85;101988.88;5128725;27;20026;-59
2022/07/02 10:35:59;;;;;;;3.28;1.42;;;;;;;23.41;39.63;101984.19;5128188;27;19915;-62
2022/07/02 10:38:29;;;;;;;4.15;1.20;;;;;;;23.45;39.55;101985.59;5131445;27;20094;-60
2022/07/02 10:40:55;;;;;;;2.28;1.10;;;;;;;23.38;39.31;101951.91;5112803;27;20184;-61
2022/07/02 10:43:21;;;;;;;2.47;1.23;;;;;;;23.76;40.49;101982.53;5112167;27;20490;-61
2022/07/02 10:45:47;;;;;;;3.72;1.10;;;;;;;23.78;37.89;101981.38;5131913;27;20050;-63
2022/07/02 10:48:15;;;;;;;2.15;1.17;;;;;;;23.83;37.48;101986.34;5095952;27;20478;-62
2022/07/02 10:50:46;;;;;;;4.40;1.08;;;;;;;23.84;38.19;101990.78;5111983;27;20084;-62
2022/07/02 10:53:17;;;;;;;6.53;1.38;;;;;;;23.72;38.88;101984.72;5123503;27;20026;-62
2022/07/02 10:55:53;;;;;;;2.05;1.23;;;;;;;23.72;38.82;101981.16;5131805;27;20466;-60
2022/07/02 10:58:20;;;;;;;5.95;1.35;;;;;;;23.91;39.42;101970.09;5131075;27;20072;-59
2022/07/02 11:00:46;;;;;;;3.60;1.10;;;;;;;23.98;38.45;101979.34;5130790;27;20041;-63
2022/07/02 11:03:24;;;;;;;2.53;1.00;;;;;;;23.88;37.22;101973.13;5130848;27;20031;-62
2022/07/02 11:06:02;;;;;;;5.25;1.10;;;;;;;23.80;37.69;101978.50;5129739;28;20042;-59
2022/07/02 11:08:36;;;;;;;3.25;1.10;;;;;;;23.75;37.44;101978.97;5130281;28;20025;-58
2022/07/02 11:11:02;;;;;;;2.08;0.88;;;;;;;23.75;37.15;101970.81;5130018;28;20031;-58
2022/07/02 11:13:40;;;;;;;2.85;1.13;;;;;;;23.86;37.67;101969.75;5129280;28;20151;-59
2022/07/02 11:16:20;;;;;;;3.92;0.90;;;;;;;24.06;38.44;101977.69;5130446;28;20037;-58
2022/07/02 11:18:47;;;;;;;2.75;1.00;;;;;;;23.94;36.04;101977.09;5129760;28;20023;-58
2022/07/02 11:21:12;;;;;;;4.63;0.93;;;;;;;23.86;35.56;101961.59;5109863;28;20031;-59
2022/07/02 11:23:39;;;;;;;2.97;1.00;;;;;;;23.80;38.01;101963.06;5129768;28;20110;-58
2022/07/02 11:26:05;;;;;;;1.85;1.27;;;;;;;23.89;37.73;101952.28;5131149;28;20027;-58
2022/07/02 11:28:30;;;;;;;3.50;1.13;;;;;;;24.17;36.23;101970.13;5130746;28;20054;-58